Terminal Aerodrome Forecast
Issued by NWS Sterling, VA

Current Version | Previous Version | Graphics & Text | Print | Product List | Glossary On
Versions: 1 2 3 4 5 6 7 8 9 10 11 12 13 14 15 16 17 18 19 20 21 22 23 24 25 26 27 28 29 30
000
FTUS41 KLWX 222000 AAA
TAFDCA
TAF AMD
KDCA 222038Z 2221/2318 03009KT 2SM -RA BKN010 OVC030
     FM230900 VRB03KT 3SM -RA BR OVC003
     FM231100 00000KT 3SM -DZ BR OVC003
     FM231500 00000KT 3SM -DZ BR OVC008=

USA.gov is the U.S. government's official web portal to all federal, state and local government web resources and services.